Redondo, Valles Caldera, New Mexico Weather observations

Data are for 10 minute period ending at time listed.
 Day   Time   Solar   Ave.   Ave.  Ave.  Vector  Max.   Baro.   Total    
  of    of     Rad.   Air    Rel.  Wind   Wind   Wind  Press.  Precip.   
Year   Day            Temp.  Hum.  Speed  Dir.   Gust                    
2016   (MST)  Kw/m2    F      %     mph   deg.    mph    mb.     in.     
-------------------------------------------------------------------------
 180    9:30   0.81   60.3    52    4.4   145     9.0   700.9    0.00 
 180    9:40   0.84   61.7    49    3.7   114     8.4   700.9    0.00 
 180    9:50   0.86   61.6    44    4.3   118    12.5   700.9    0.00 
 180   10:00   0.88   61.5    43    5.1   132    11.9   701.0    0.00 
 180   10:10   0.90   61.8    46    4.4   144     9.0   701.0    0.00 
 180   10:20   0.92   62.4    45    4.5   130    10.2   701.0    0.00 
 180   10:30   0.94   62.4    46    3.5   127     8.4   701.0    0.00 
 180   10:40   0.95   63.0    47    4.2   159     9.0   701.0    0.00 
 180   10:50   0.97   62.9    46    4.6   147    10.2   701.0    0.00 
 180   11:00   0.98   62.5    43    4.8   160     9.6   701.0    0.00 
 180   11:10   0.99   62.7    41    5.4   127    10.8   701.1    0.00 
 180   11:20   1.01   62.3    44    5.9   149    13.1   701.0    0.00 
 180   11:30   1.02   62.4    45    4.6   136     9.0   701.0    0.00 
 180   11:40   0.94   63.0    45    4.6   161    11.3   700.9    0.00 
 180   11:50   1.04   62.9    45    5.1   125    10.8   700.8    0.00 
 180   12:00   1.01   62.9    48    5.4   148    11.3   700.7    0.00 
 180   12:10   1.05   63.8    46    4.9   117    10.2   700.6    0.00 
 180   12:20   1.05   63.7    46    4.4   140    10.8   700.5    0.00 
 180   12:30   1.07   64.0    47    4.5   155     9.0   700.3    0.00 
 180   12:40   1.06   64.5    47    4.7   111    10.2   700.3    0.00 
 180   12:50   1.05   64.4    47    5.0    86    11.3   700.2    0.00 
 180   13:00   1.02   64.7    47    4.1   164     8.4   700.1    0.00 
 180   13:10   0.96   65.1    47    3.8   177     9.0   700.0    0.00 
 180   13:20   1.05   64.9    45    6.5   165    12.5   700.0    0.00 
 180   13:30   0.95   64.9    45    5.0   172    10.8   699.9    0.00 
 180   13:40   0.91   65.0    43    5.3   172    11.3   699.9    0.00 
 180   13:50   1.01   65.5    42    5.1   149    12.5   699.8    0.00 
 180   14:00   1.00   66.6    39    4.6   133    12.5   699.7    0.00 
 180   14:10   1.01   66.6    38    4.1   155     9.6   699.6    0.00 
 180   14:20   1.04   67.6    36    5.1   160    11.9   699.5    0.00 
 180   14:30   1.07   68.0    36    4.8   152    11.9   699.4    0.00 
 180   14:40   1.00   68.8    33    5.3   170    11.3   699.3    0.00 
 180   14:50   0.89   67.9    33    4.7   156    11.3   699.3    0.00 
 180   15:00   0.54   67.9    32    3.1   155     9.0   699.4    0.00 
 180   15:10   0.23   64.6    34    4.0   145     7.8   699.5    0.00 
 180   15:20   0.23   63.1    36    3.3   144     7.8   699.5    0.00 
 180   15:30   0.22   63.2    37    3.4   157     7.2   699.4    0.00 
 180   15:40   0.22   63.0    37    3.5   150     6.6   699.3    0.00 
 180   15:50   0.22   62.9    39    3.3   142     9.6   699.2    0.00 
 180   16:00   0.25   63.2    38    3.4   163     7.2   699.2    0.00 
 180   16:10   0.36   63.8    38    3.9   160     9.0   699.2    0.00 
 180   16:20   0.39   64.6    36    2.9   128     7.2   699.1    0.00 
 180   16:30   0.46   66.1    35    3.5   168     7.8   699.2    0.00 
 180   16:40   0.16   64.3    36    3.0   141     6.0   699.2    0.00 
 180   16:50   0.12   62.2    42    3.9     6     9.0   699.3    0.00 
 180   17:00   0.14   58.7    52    6.0   358    13.7   699.3    0.00 
 180   17:10   0.19   56.7    56    6.5   356    12.5   699.2    0.00 
 180   17:20   0.28   55.6    59    7.1     6    14.9   699.3    0.00 
 180   17:30   0.42   57.6    57    7.2   357    12.5   699.2    0.00 
 180   17:40   0.35   57.2    58    7.5   357    13.1   699.1    0.00 
 180   17:50   0.27   57.4    57    7.3    23    16.1   699.3    0.00 
 180   18:00   0.12   54.7    65    8.0    22    16.1   699.4    0.00 
 180   18:10   0.04   50.3    77    7.2    12    11.9   699.3    0.00 
 180   18:20   0.03   48.7    80    6.6    22    11.3   699.4    0.00 
 180   18:30   0.03   48.2    80    5.7    39    10.8   699.5    0.00 
 180   18:40   0.01   48.4    75    5.5    54    15.5   699.6    0.00 
 180   18:50   0.01   49.4    70    3.7   328    12.5   699.6    0.00 
 180   19:00   0.01   50.7    64    4.6   218    11.9   699.5    0.00 
 180   19:10   0.00   51.7    60    4.4   211     7.8   699.6    0.00 
 180   19:20   0.00   51.9    60    3.8   195    10.2   699.6    0.00 
 180   19:30   0.00   52.1    58    1.6   275     6.6   699.7    0.00 
 180   19:40   0.00   52.4    56    2.0   272     5.4   699.8    0.00 
 180   19:50   0.00   52.6    57    4.4   356     9.0   699.8    0.00 
 180   20:00   0.00   51.8    62    2.0   347     7.8   699.7    0.00 
 180   20:10   0.00   50.9    66    0.3   231     1.8   699.9    0.00 
 180   20:20   0.00   50.5    68    0.0   289     1.2   699.8    0.00 
 180   20:30   0.00   50.4    67    0.0     0     0.0   699.7    0.00 
 180   20:40   0.00   50.4    68    0.2   342     1.8   699.7    0.00 
 180   20:50   0.00   50.4    64    0.0   127     1.2   699.5    0.00 
 180   21:00   0.00   50.9    62    0.0     0     0.0   699.4    0.00 
 180   21:10   0.00   51.3    57    0.2   109     1.8   699.4    0.00 
 180   21:20   0.00   51.7    60    0.0   170     1.2   699.3    0.00 
 180   21:30   0.00   51.0    65    0.0   176     1.2   699.3    0.00 
 180   21:40   0.00   50.7    60    0.2   212     1.8   699.4    0.00 
 180   21:50   0.00   50.8    62    1.3   190     4.2   699.4    0.00 
 180   22:00   0.00   50.2    72    0.0     0     0.0   699.4    0.00 
 180   22:10   0.00   49.5    73    0.0     0     0.0   699.4    0.00 
 180   22:20   0.00   48.9    68    1.9   174     3.0   699.3    0.00 
 180   22:30   0.00   48.8    67    1.9   174     4.2   699.3    0.00 
 180   22:40   0.00   49.0    65    3.3   181     6.6   699.3    0.00 
 180   22:50   0.00   49.5    63    4.4   176     9.0   699.1    0.00 
 180   23:00   0.00   50.7    60    4.7   168     9.6   699.0    0.00 
 180   23:10   0.00   50.8    59    4.8   169    11.3   699.0    0.00 
 180   23:20   0.00   50.2    61    4.1   168     9.0   699.0    0.00 
 180   23:30   0.00   50.6    60    4.7   164     8.4   698.9    0.00 
 180   23:40   0.00   51.0    61    5.1   168    10.8   698.9    0.00 
 180   23:50   0.00   50.1    64    4.4   169     9.0   698.9    0.00 
 181    0:00   0.00   50.1    65    4.3   170    11.3   698.7    0.00 
 181    0:10   0.00   50.3    65    4.6   166     9.0   698.7    0.00 
 181    0:20   0.00   50.3    66    4.5   164     8.4   698.7    0.00 
 181    0:30   0.00   50.3    67    4.7   164    11.3   698.7    0.00 
 181    0:40   0.00   50.1    68    3.8   165     7.2   698.7    0.00 
 181    0:50   0.00   49.5    70    3.9   168     7.2   698.8    0.00 
 181    1:00   0.00   49.2    70    3.7   166     6.6   699.0    0.00 
 181    1:10   0.00   49.1    70    2.8   153     6.6   699.0    0.00 
 181    1:20   0.00   48.8    71    3.6   166     6.0   699.0    0.00 
 181    1:30   0.00   48.5    72    4.0   162     7.8   699.0    0.00 
 181    1:40   0.00   49.2    71    4.5   162     8.4   698.9    0.00 
 181    1:50   0.00   50.1    71    5.1   159    11.3   699.0    0.00 
 181    2:00   0.00   50.1    72    4.9   161     9.0   698.8    0.00 
 181    2:10   0.00   50.2    73    5.9   165    11.9   698.8    0.00 
 181    2:20   0.00   50.5    74    5.7   159    11.3   698.9    0.00 
 181    2:30   0.00   50.2    77    5.5   164    11.9   698.9    0.00 
 181    2:40   0.00   50.1    80    5.6   173    11.9   698.7    0.00 
 181    2:50   0.00   50.0    82    6.1   170    13.1   698.6    0.00 
 181    3:00   0.00   49.8    83    5.2   177     8.4   698.6    0.00 
 181    3:10   0.00   49.9    78    4.6   175     9.6   698.6    0.00 
 181    3:20   0.00   49.8    77    0.0     0     0.0   698.6    0.00 
 181    3:30   0.00   49.0    78    0.0     0     0.0   698.5    0.00 
 181    3:40   0.00   48.0    79    0.0     0     0.0   698.5    0.00 
 181    3:50   0.00   48.8    74    0.0     0     0.0   698.5    0.00 
 181    4:00   0.00   49.5    72    0.0     0     0.0   698.5    0.00 
 181    4:10   0.00   49.2    73    0.0     0     0.0   698.5    0.00 
 181    4:20   0.00   49.2    72    0.0     0     0.0   698.6    0.00 
 181    4:30   0.00   49.0    73    0.0     0     0.0   698.6    0.00 
 181    4:40   0.00   48.6    73    0.0     0     0.0   698.7    0.00 
 181    4:50   0.00   48.7    72    0.0     0     0.0   698.8    0.00 
 181    5:00   0.00   48.8    71    0.0     0     0.0   698.8    0.00 
 181    5:10   0.01   48.8    71    0.0     0     0.0   698.7    0.00 
 181    5:20   0.01   48.9    70    0.0     0     0.0   698.8    0.00 
 181    5:30   0.01   48.7    70    0.0     0     0.0   698.8    0.00 
 181    5:40   0.02   49.3    67    0.0     0     0.0   698.8    0.00 
 181    5:50   0.02   49.2    67    0.0     0     0.0   698.9    0.00 
 181    6:00   0.03   49.9    69    0.0     0     0.0   699.0    0.00 
 181    6:10   0.10   50.7    67    0.0     0     0.0   699.0    0.00 
 181    6:20   0.20   54.3    57    0.7   132     4.8   699.0    0.00 
 181    6:30   0.21   55.9    54    3.4   155     7.8   699.0    0.00 
 181    6:40   0.27   56.8    53    2.2   107     5.4   699.0    0.00 
 181    6:50   0.30   57.4    55    3.1   158     8.4   699.0    0.00 
 181    7:00   0.34   57.7    50    3.6   140     8.4   699.0    0.00 
 181    7:10   0.37   59.8    54    2.4     4     6.0   699.1    0.00 
 181    7:20   0.40   59.2    54    1.9   122     5.4   699.1    0.00 
 181    7:30   0.44   59.1    52    2.1   132     6.0   699.1    0.00 
 181    7:40   0.48   59.2    51    3.2   126     6.6   699.0    0.00 
 181    7:50   0.51   60.7    51    2.7    55    10.2   699.0    0.00 
 181    8:00   0.54   62.7    51    3.5    13     6.0   699.1    0.00 
 181    8:10   0.58   62.8    56    2.5   346     4.8   699.1    0.00 
 181    8:20   0.61   62.6    58    1.8     5     5.4   699.1    0.00 
 181    8:30   0.64   63.6    56    3.0   337     5.4   699.2    0.00 
 181    8:40   0.64   63.1    55    1.9   344     4.2   699.2    0.00 
 181    8:50   0.46   61.6    58    1.6    22     3.6   699.2    0.00 
 181    9:00   0.20   60.0    62    1.7    52     3.6   699.2    0.00 
 181    9:10   0.30   58.0    64    2.3    10     5.4   699.3    0.00 
 181    9:20   0.32   56.3    71    3.2   245     8.4   699.3    0.00 

Return to Redondo, Valles Caldera graphs page.


Western Regional Climate Center,wrcc@dri.edu